sensor_id;sensor_type;location;lat;lon;timestamp;pressure;altitude;pressure_sealevel;temperature;humidity
76478;BME280;65309;49.790;18.972;2023-04-29T00:02:51;96441.78;;;10.40;61.27
76478;BME280;65309;49.790;18.972;2023-04-29T00:07:53;96439.00;;;10.40;62.10
76478;BME280;65309;49.790;18.972;2023-04-29T00:12:57;96429.03;;;10.48;61.75
76478;BME280;65309;49.790;18.972;2023-04-29T00:17:59;96442.13;;;10.47;61.79
76478;BME280;65309;49.790;18.972;2023-04-29T00:23:01;96435.78;;;10.41;62.84
76478;BME280;65309;49.790;18.972;2023-04-29T00:28:04;96429.81;;;10.48;62.75
76478;BME280;65309;49.790;18.972;2023-04-29T00:33:06;96427.03;;;10.48;62.12
76478;BME280;65309;49.790;18.972;2023-04-29T00:38:08;96422.78;;;10.47;63.24
76478;BME280;65309;49.790;18.972;2023-04-29T00:43:12;96423.31;;;10.51;63.15
76478;BME280;65309;49.790;18.972;2023-04-29T00:48:14;96421.25;;;10.46;63.23
76478;BME280;65309;49.790;18.972;2023-04-29T00:53:16;96413.22;;;10.48;63.16
76478;BME280;65309;49.790;18.972;2023-04-29T00:58:20;96418.75;;;10.48;63.06
76478;BME280;65309;49.790;18.972;2023-04-29T01:03:23;96417.03;;;10.51;63.63
76478;BME280;65309;49.790;18.972;2023-04-29T01:08:33;96409.28;;;10.55;63.65
76478;BME280;65309;49.790;18.972;2023-04-29T01:13:42;96408.78;;;10.56;63.80
76478;BME280;65309;49.790;18.972;2023-04-29T01:18:49;96419.56;;;10.54;63.93
76478;BME280;65309;49.790;18.972;2023-04-29T01:23:56;96406.00;;;10.56;63.80
76478;BME280;65309;49.790;18.972;2023-04-29T01:29:05;96406.00;;;10.56;63.98
76478;BME280;65309;49.790;18.972;2023-04-29T01:34:11;96410.03;;;10.55;65.13
76478;BME280;65309;49.790;18.972;2023-04-29T01:39:22;96411.50;;;10.51;64.94
76478;BME280;65309;49.790;18.972;2023-04-29T01:44:28;96411.72;;;10.47;65.22
76478;BME280;65309;49.790;18.972;2023-04-29T01:49:34;96412.25;;;10.51;64.84
76478;BME280;65309;49.790;18.972;2023-04-29T01:54:38;96400.97;;;10.55;65.77
76478;BME280;65309;49.790;18.972;2023-04-29T01:59:40;96405.22;;;10.50;65.43
76478;BME280;65309;49.790;18.972;2023-04-29T02:04:42;96403.47;;;10.53;66.19
76478;BME280;65309;49.790;18.972;2023-04-29T02:09:46;96407.50;;;10.52;65.96
76478;BME280;65309;49.790;18.972;2023-04-29T02:14:51;96398.97;;;10.55;65.76
76478;BME280;65309;49.790;18.972;2023-04-29T02:19:53;96394.41;;;10.52;67.50
76478;BME280;65309;49.790;18.972;2023-04-29T02:24:57;96388.41;;;10.54;66.94
76478;BME280;65309;49.790;18.972;2023-04-29T02:29:59;96373.56;;;10.51;67.77
76478;BME280;65309;49.790;18.972;2023-04-29T02:35:01;96388.63;;;10.50;67.88
76478;BME280;65309;49.790;18.972;2023-04-29T02:40:05;96381.56;;;10.49;67.66
76478;BME280;65309;49.790;18.972;2023-04-29T02:45:09;96389.84;;;10.49;67.96
76478;BME280;65309;49.790;18.972;2023-04-29T02:50:11;96385.03;;;10.44;68.42
76478;BME280;65309;49.790;18.972;2023-04-29T02:55:14;96376.72;;;10.44;68.28
76478;BME280;65309;49.790;18.972;2023-04-29T03:00:16;96371.16;;;10.39;68.61
76478;BME280;65309;49.790;18.972;2023-04-29T03:05:18;96364.13;;;10.38;69.18
76478;BME280;65309;49.790;18.972;2023-04-29T03:10:22;96359.56;;;10.35;69.00
76478;BME280;65309;49.790;18.972;2023-04-29T03:15:24;96341.25;;;10.37;69.31
76478;BME280;65309;49.790;18.972;2023-04-29T03:20:26;96345.03;;;10.40;67.95
76478;BME280;65309;49.790;18.972;2023-04-29T03:25:29;96341.53;;;10.39;68.15
76478;BME280;65309;49.790;18.972;2023-04-29T03:30:31;96345.09;;;10.45;68.19
76478;BME280;65309;49.790;18.972;2023-04-29T03:35:33;96347.41;;;10.52;69.01
76478;BME280;65309;49.790;18.972;2023-04-29T03:40:37;96356.97;;;10.51;68.06
76478;BME280;65309;49.790;18.972;2023-04-29T03:45:39;96356.75;;;10.55;68.02
76478;BME280;65309;49.790;18.972;2023-04-29T03:50:41;96349.47;;;10.57;67.55
76478;BME280;65309;49.790;18.972;2023-04-29T03:55:44;96350.44;;;10.54;68.24
76478;BME280;65309;49.790;18.972;2023-04-29T04:00:47;96349.22;;;10.61;68.85
76478;BME280;65309;49.790;18.972;2023-04-29T04:05:49;96359.28;;;10.58;68.52
76478;BME280;65309;49.790;18.972;2023-04-29T04:10:52;96367.28;;;10.56;68.50
76478;BME280;65309;49.790;18.972;2023-04-29T04:15:54;96360.25;;;10.55;68.12
76478;BME280;65309;49.790;18.972;2023-04-29T04:20:56;96368.13;;;10.63;68.03
76478;BME280;65309;49.790;18.972;2023-04-29T04:26:00;96366.16;;;10.69;67.84
76478;BME280;65309;49.790;18.972;2023-04-29T04:31:02;96367.66;;;10.70;67.90
76478;BME280;65309;49.790;18.972;2023-04-29T04:36:05;96363.44;;;10.74;67.05
76478;BME280;65309;49.790;18.972;2023-04-29T04:41:08;96371.03;;;10.79;67.30
76478;BME280;65309;49.790;18.972;2023-04-29T04:46:11;96368.03;;;10.83;67.42
76478;BME280;65309;49.790;18.972;2023-04-29T04:51:13;96357.44;;;10.81;67.18
76478;BME280;65309;49.790;18.972;2023-04-29T04:56:16;96363.56;;;10.91;67.45
76478;BME280;65309;49.790;18.972;2023-04-29T05:01:18;96362.56;;;10.94;66.83
76478;BME280;65309;49.790;18.972;2023-04-29T05:06:20;96346.31;;;11.07;68.04
76478;BME280;65309;49.790;18.972;2023-04-29T05:11:23;96363.91;;;11.04;66.58
76478;BME280;65309;49.790;18.972;2023-04-29T05:16:26;96362.22;;;11.12;66.01
76478;BME280;65309;49.790;18.972;2023-04-29T05:21:28;96366.75;;;11.15;66.41
76478;BME280;65309;49.790;18.972;2023-04-29T05:26:31;96357.66;;;11.09;66.64
76478;BME280;65309;49.790;18.972;2023-04-29T05:31:33;96362.97;;;11.13;66.94
76478;BME280;65309;49.790;18.972;2023-04-29T05:36:35;96360.44;;;11.09;66.33
76478;BME280;65309;49.790;18.972;2023-04-29T05:41:38;96363.91;;;11.04;66.93
76478;BME280;65309;49.790;18.972;2023-04-29T05:46:41;96363.78;;;11.19;66.47
76478;BME280;65309;49.790;18.972;2023-04-29T05:51:43;96373.09;;;11.21;66.32
76478;BME280;65309;49.790;18.972;2023-04-29T05:56:46;96375.16;;;11.26;66.35
76478;BME280;65309;49.790;18.972;2023-04-29T06:01:48;96377.63;;;11.24;66.70
76478;BME280;65309;49.790;18.972;2023-04-29T06:06:50;96381.88;;;11.20;66.80
76478;BME280;65309;49.790;18.972;2023-04-29T06:11:54;96371.38;;;11.29;66.96
76478;BME280;65309;49.790;18.972;2023-04-29T06:16:56;96370.84;;;11.25;66.60
76478;BME280;65309;49.790;18.972;2023-04-29T06:21:58;96363.59;;;11.33;66.70
76478;BME280;65309;49.790;18.972;2023-04-29T06:27:02;96363.50;;;11.17;69.14
76478;BME280;65309;49.790;18.972;2023-04-29T06:32:05;96367.59;;;11.27;68.50
76478;BME280;65309;49.790;18.972;2023-04-29T06:37:07;96362.63;;;11.36;67.84
76478;BME280;65309;49.790;18.972;2023-04-29T06:42:10;96353.13;;;11.48;67.88
76478;BME280;65309;49.790;18.972;2023-04-29T06:47:12;96362.47;;;11.57;67.83
76478;BME280;65309;49.790;18.972;2023-04-29T06:52:16;96364.78;;;11.64;66.48
76478;BME280;65309;49.790;18.972;2023-04-29T06:57:19;96370.94;;;11.79;65.54
76478;BME280;65309;49.790;18.972;2023-04-29T07:02:21;96368.72;;;11.94;65.07
76478;BME280;65309;49.790;18.972;2023-04-29T07:07:23;96358.16;;;12.04;64.53
76478;BME280;65309;49.790;18.972;2023-04-29T07:12:27;96342.06;;;12.08;64.99
76478;BME280;65309;49.790;18.972;2023-04-29T07:17:29;96361.69;;;12.04;63.58
76478;BME280;65309;49.790;18.972;2023-04-29T07:22:32;96367.53;;;12.17;63.95
76478;BME280;65309;49.790;18.972;2023-04-29T07:27:36;96375.88;;;12.23;63.81
76478;BME280;65309;49.790;18.972;2023-04-29T07:32:38;96369.38;;;12.42;63.57
76478;BME280;65309;49.790;18.972;2023-04-29T07:37:40;96374.69;;;12.52;63.26
76478;BME280;65309;49.790;18.972;2023-04-29T07:42:46;96373.94;;;12.62;62.95
76478;BME280;65309;49.790;18.972;2023-04-29T07:47:48;96376.22;;;12.64;63.17
76478;BME280;65309;49.790;18.972;2023-04-29T07:52:50;96374.94;;;12.59;63.08
76478;BME280;65309;49.790;18.972;2023-04-29T07:57:53;96386.06;;;12.70;62.11
76478;BME280;65309;49.790;18.972;2023-04-29T08:02:56;96382.56;;;12.98;61.37
76478;BME280;65309;49.790;18.972;2023-04-29T08:07:59;96387.09;;;13.17;61.07
76478;BME280;65309;49.790;18.972;2023-04-29T08:13:02;96391.66;;;13.31;60.80
76478;BME280;65309;49.790;18.972;2023-04-29T08:18:04;96389.38;;;13.35;60.61
76478;BME280;65309;49.790;18.972;2023-04-29T08:23:06;96390.84;;;13.03;61.64
76478;BME280;65309;49.790;18.972;2023-04-29T08:28:10;96392.34;;;13.60;60.16
76478;BME280;65309;49.790;18.972;2023-04-29T08:33:12;96385.19;;;13.87;58.14
76478;BME280;65309;49.790;18.972;2023-04-29T08:38:15;96379.44;;;14.31;59.75
76478;BME280;65309;49.790;18.972;2023-04-29T08:43:20;96389.09;;;14.71;57.25
76478;BME280;65309;49.790;18.972;2023-04-29T08:48:22;96392.50;;;14.94;55.42
76478;BME280;65309;49.790;18.972;2023-04-29T08:53:25;96383.19;;;15.15;55.97
76478;BME280;65309;49.790;18.972;2023-04-29T08:58:28;96365.38;;;16.40;53.88
76478;BME280;65309;49.790;18.972;2023-04-29T09:03:36;96379.34;;;16.59;52.30
76478;BME280;65309;49.790;18.972;2023-04-29T09:08:41;96372.50;;;16.60;50.21
76478;BME280;65309;49.790;18.972;2023-04-29T09:13:45;96378.75;;;16.04;53.45
76478;BME280;65309;49.790;18.972;2023-04-29T09:18:48;96374.66;;;16.48;52.29
76478;BME280;65309;49.790;18.972;2023-04-29T09:23:52;96369.38;;;16.63;50.83
76478;BME280;65309;49.790;18.972;2023-04-29T09:29:09;96372.16;;;16.82;52.12
76478;BME280;65309;49.790;18.972;2023-04-29T09:34:12;96376.69;;;18.27;47.01
76478;BME280;65309;49.790;18.972;2023-04-29T09:39:16;96370.13;;;19.06;45.97
76478;BME280;65309;49.790;18.972;2023-04-29T09:44:21;96378.75;;;17.61;46.75
76478;BME280;65309;49.790;18.972;2023-04-29T09:49:25;96379.69;;;16.12;52.01
76478;BME280;65309;49.790;18.972;2023-04-29T09:54:28;96374.63;;;15.38;54.44
76478;BME280;65309;49.790;18.972;2023-04-29T09:59:33;96370.47;;;15.74;53.30
76478;BME280;65309;49.790;18.972;2023-04-29T10:04:39;96371.69;;;16.22;53.32
76478;BME280;65309;49.790;18.972;2023-04-29T10:09:44;96374.59;;;16.35;53.56
76478;BME280;65309;49.790;18.972;2023-04-29T10:14:53;96379.28;;;15.30;56.81
76478;BME280;65309;49.790;18.972;2023-04-29T10:20:02;96387.75;;;14.83;56.22
76478;BME280;65309;49.790;18.972;2023-04-29T10:25:08;96383.78;;;14.73;57.17
76478;BME280;65309;49.790;18.972;2023-04-29T10:30:13;96384.97;;;14.42;57.72
76478;BME280;65309;49.790;18.972;2023-04-29T10:35:17;96384.59;;;14.10;60.59
76478;BME280;65309;49.790;18.972;2023-04-29T10:40:23;96386.25;;;13.67;59.32
76478;BME280;65309;49.790;18.972;2023-04-29T10:45:31;96388.28;;;13.77;59.83
76478;BME280;65309;49.790;18.972;2023-04-29T10:50:40;96389.31;;;13.58;60.51
76478;BME280;65309;49.790;18.972;2023-04-29T10:55:46;96393.03;;;13.82;60.58
76478;BME280;65309;49.790;18.972;2023-04-29T11:00:49;96406.53;;;13.40;62.35
76478;BME280;65309;49.790;18.972;2023-04-29T11:06:07;96427.44;;;12.79;69.40
76478;BME280;65309;49.790;18.972;2023-04-29T11:11:09;96456.88;;;11.53;79.09
76478;BME280;65309;49.790;18.972;2023-04-29T11:16:25;96455.63;;;10.91;85.82
76478;BME280;65309;49.790;18.972;2023-04-29T11:21:29;96453.69;;;10.72;89.55
76478;BME280;65309;49.790;18.972;2023-04-29T11:26:33;96443.16;;;10.76;91.57
76478;BME280;65309;49.790;18.972;2023-04-29T11:31:37;96443.03;;;10.65;93.80
76478;BME280;65309;49.790;18.972;2023-04-29T11:36:40;96438.81;;;10.95;92.09
76478;BME280;65309;49.790;18.972;2023-04-29T11:41:42;96440.13;;;11.36;88.99
76478;BME280;65309;49.790;18.972;2023-04-29T11:46:45;96424.28;;;11.74;88.95
76478;BME280;65309;49.790;18.972;2023-04-29T11:51:47;96416.97;;;12.24;84.57
76478;BME280;65309;49.790;18.972;2023-04-29T11:56:52;96428.13;;;12.47;82.39
76478;BME280;65309;49.790;18.972;2023-04-29T12:01:57;96420.09;;;12.60;80.71
76478;BME280;65309;49.790;18.972;2023-04-29T12:07:01;96413.56;;;12.85;80.73
76478;BME280;65309;49.790;18.972;2023-04-29T12:12:04;96419.16;;;13.29;78.26
76478;BME280;65309;49.790;18.972;2023-04-29T12:17:10;96419.72;;;14.13;74.78
76478;BME280;65309;49.790;18.972;2023-04-29T12:22:13;96413.84;;;14.28;73.89
76478;BME280;65309;49.790;18.972;2023-04-29T12:27:15;96419.91;;;14.38;71.91
76478;BME280;65309;49.790;18.972;2023-04-29T12:32:21;96410.59;;;14.76;69.58
76478;BME280;65309;49.790;18.972;2023-04-29T12:37:26;96405.44;;;14.45;69.13
76478;BME280;65309;49.790;18.972;2023-04-29T12:42:31;96407.91;;;14.54;67.59
76478;BME280;65309;49.790;18.972;2023-04-29T12:47:34;96408.34;;;14.11;70.04
76478;BME280;65309;49.790;18.972;2023-04-29T12:52:37;96394.75;;;14.02;68.99
76478;BME280;65309;49.790;18.972;2023-04-29T12:57:39;96384.84;;;14.12;68.80
76478;BME280;65309;49.790;18.972;2023-04-29T13:02:43;96393.31;;;14.42;68.69
76478;BME280;65309;49.790;18.972;2023-04-29T13:07:45;96379.88;;;14.87;69.57
76478;BME280;65309;49.790;18.972;2023-04-29T13:12:47;96384.75;;;14.81;65.99
76478;BME280;65309;49.790;18.972;2023-04-29T13:17:51;96384.19;;;15.48;66.70
76478;BME280;65309;49.790;18.972;2023-04-29T13:22:53;96383.00;;;16.29;62.84
76478;BME280;65309;49.790;18.972;2023-04-29T13:27:55;96378.69;;;15.67;62.58
76478;BME280;65309;49.790;18.972;2023-04-29T13:32:58;96384.88;;;15.54;62.78
76478;BME280;65309;49.790;18.972;2023-04-29T13:38:12;96370.94;;;15.54;63.20
76478;BME280;65309;49.790;18.972;2023-04-29T13:43:14;96370.28;;;15.42;63.98
76478;BME280;65309;49.790;18.972;2023-04-29T13:48:34;96376.59;;;15.18;63.73
76478;BME280;65309;49.790;18.972;2023-04-29T13:53:56;96369.94;;;15.57;61.34
76478;BME280;65309;49.790;18.972;2023-04-29T13:59:18;96368.16;;;15.54;59.92
76478;BME280;65309;49.790;18.972;2023-04-29T14:04:25;96368.56;;;15.39;61.83
76478;BME280;65309;49.790;18.972;2023-04-29T14:09:27;96372.72;;;15.81;60.73
76478;BME280;65309;49.790;18.972;2023-04-29T14:14:29;96372.44;;;15.31;58.82
76478;BME280;65309;49.790;18.972;2023-04-29T14:19:33;96378.97;;;15.87;58.30
76478;BME280;65309;49.790;18.972;2023-04-29T14:24:35;96377.38;;;15.43;60.54
76478;BME280;65309;49.790;18.972;2023-04-29T14:29:37;96371.66;;;15.84;57.28
76478;BME280;65309;49.790;18.972;2023-04-29T14:34:40;96366.38;;;16.24;57.95
76478;BME280;65309;49.790;18.972;2023-04-29T14:39:43;96364.75;;;16.09;55.35
76478;BME280;65309;49.790;18.972;2023-04-29T14:44:45;96365.50;;;15.13;59.15
76478;BME280;65309;49.790;18.972;2023-04-29T14:49:48;96370.19;;;15.53;60.77
76478;BME280;65309;49.790;18.972;2023-04-29T14:54:50;96370.34;;;15.37;58.54
76478;BME280;65309;49.790;18.972;2023-04-29T14:59:53;96366.78;;;15.36;57.79
76478;BME280;65309;49.790;18.972;2023-04-29T15:04:56;96370.56;;;15.39;57.36
76478;BME280;65309;49.790;18.972;2023-04-29T15:09:58;96369.97;;;15.51;58.38
76478;BME280;65309;49.790;18.972;2023-04-29T15:15:00;96372.25;;;15.53;56.87
76478;BME280;65309;49.790;18.972;2023-04-29T15:20:05;96372.63;;;15.87;57.83
76478;BME280;65309;49.790;18.972;2023-04-29T15:25:08;96370.72;;;15.76;57.32
76478;BME280;65309;49.790;18.972;2023-04-29T15:30:12;96377.81;;;15.23;59.54
76478;BME280;65309;49.790;18.972;2023-04-29T15:35:15;96382.47;;;14.80;59.86
76478;BME280;65309;49.790;18.972;2023-04-29T15:40:18;96371.34;;;14.39;62.34
76478;BME280;65309;49.790;18.972;2023-04-29T15:45:20;96378.50;;;14.17;63.53
76478;BME280;65309;49.790;18.972;2023-04-29T15:50:24;96383.22;;;14.34;63.27
76478;BME280;65309;49.790;18.972;2023-04-29T15:55:26;96382.59;;;14.05;64.48
76478;BME280;65309;49.790;18.972;2023-04-29T16:00:28;96386.41;;;14.02;65.42
76478;BME280;65309;49.790;18.972;2023-04-29T16:05:32;96385.63;;;14.07;66.31
76478;BME280;65309;49.790;18.972;2023-04-29T16:10:35;96397.28;;;14.00;65.57
76478;BME280;65309;49.790;18.972;2023-04-29T16:15:37;96402.19;;;13.72;66.79
76478;BME280;65309;49.790;18.972;2023-04-29T16:20:41;96409.75;;;13.66;66.95
76478;BME280;65309;49.790;18.972;2023-04-29T16:25:43;96414.09;;;13.45;68.52
76478;BME280;65309;49.790;18.972;2023-04-29T16:30:45;96408.06;;;13.18;70.09
76478;BME280;65309;49.790;18.972;2023-04-29T16:35:48;96419.38;;;12.76;72.66
76478;BME280;65309;49.790;18.972;2023-04-29T16:40:50;96408.97;;;12.54;74.76
76478;BME280;65309;49.790;18.972;2023-04-29T16:45:52;96416.75;;;12.33;76.12
76478;BME280;65309;49.790;18.972;2023-04-29T16:50:56;96418.50;;;12.31;77.66
76478;BME280;65309;49.790;18.972;2023-04-29T16:55:58;96413.00;;;12.48;80.41
76478;BME280;65309;49.790;18.972;2023-04-29T17:01:00;96410.06;;;13.12;76.85
76478;BME280;65309;49.790;18.972;2023-04-29T17:06:04;96410.00;;;12.73;79.12
76478;BME280;65309;49.790;18.972;2023-04-29T17:11:07;96407.75;;;12.66;79.50
76478;BME280;65309;49.790;18.972;2023-04-29T17:16:18;96417.00;;;12.35;81.46
76478;BME280;65309;49.790;18.972;2023-04-29T17:21:22;96427.03;;;12.27;80.28
76478;BME280;65309;49.790;18.972;2023-04-29T17:26:26;96425.34;;;11.82;82.81
76478;BME280;65309;49.790;18.972;2023-04-29T17:31:28;96438.16;;;11.74;81.75
76478;BME280;65309;49.790;18.972;2023-04-29T17:36:47;96438.88;;;11.69;81.51
76478;BME280;65309;49.790;18.972;2023-04-29T17:41:49;96441.72;;;11.48;82.98
76478;BME280;65309;49.790;18.972;2023-04-29T17:46:51;96444.63;;;11.28;83.00
76478;BME280;65309;49.790;18.972;2023-04-29T17:51:54;96440.47;;;11.13;83.25
76478;BME280;65309;49.790;18.972;2023-04-29T17:56:56;96445.19;;;11.06;84.83
76478;BME280;65309;49.790;18.972;2023-04-29T18:01:59;96453.69;;;10.97;84.54
76478;BME280;65309;49.790;18.972;2023-04-29T18:07:03;96457.03;;;11.07;84.01
76478;BME280;65309;49.790;18.972;2023-04-29T18:12:05;96458.00;;;11.04;84.16
76478;BME280;65309;49.790;18.972;2023-04-29T18:17:07;96463.16;;;10.91;83.87
76478;BME280;65309;49.790;18.972;2023-04-29T18:22:10;96459.00;;;11.01;83.80
76478;BME280;65309;49.790;18.972;2023-04-29T18:27:12;96464.09;;;11.08;83.67
76478;BME280;65309;49.790;18.972;2023-04-29T18:32:15;96467.38;;;11.12;82.76
76478;BME280;65309;49.790;18.972;2023-04-29T18:37:18;96480.22;;;11.15;82.94
76478;BME280;65309;49.790;18.972;2023-04-29T18:42:20;96477.59;;;11.32;81.67
76478;BME280;65309;49.790;18.972;2023-04-29T18:47:22;96479.81;;;11.22;82.38
76478;BME280;65309;49.790;18.972;2023-04-29T18:52:26;96489.97;;;11.36;80.44
76478;BME280;65309;49.790;18.972;2023-04-29T18:57:28;96496.88;;;11.46;80.28
76478;BME280;65309;49.790;18.972;2023-04-29T19:02:30;96499.28;;;11.65;79.02
76478;BME280;65309;49.790;18.972;2023-04-29T19:07:33;96506.84;;;11.70;79.33
76478;BME280;65309;49.790;18.972;2023-04-29T19:12:36;96503.28;;;11.64;80.33
76478;BME280;65309;49.790;18.972;2023-04-29T19:17:38;96503.25;;;11.58;79.76
76478;BME280;65309;49.790;18.972;2023-04-29T19:22:41;96510.34;;;11.65;80.75
76478;BME280;65309;49.790;18.972;2023-04-29T19:27:43;96505.75;;;11.56;80.72
76478;BME280;65309;49.790;18.972;2023-04-29T19:32:46;96513.19;;;11.39;82.01
76478;BME280;65309;49.790;18.972;2023-04-29T19:37:49;96519.59;;;11.56;81.34
76478;BME280;65309;49.790;18.972;2023-04-29T19:42:51;96518.75;;;11.76;80.83
76478;BME280;65309;49.790;18.972;2023-04-29T19:47:53;96519.00;;;11.78;80.11
76478;BME280;65309;49.790;18.972;2023-04-29T19:52:57;96518.59;;;11.90;80.25
76478;BME280;65309;49.790;18.972;2023-04-29T19:57:59;96519.63;;;11.93;80.64
76478;BME280;65309;49.790;18.972;2023-04-29T20:03:02;96520.34;;;11.88;80.10
76478;BME280;65309;49.790;18.972;2023-04-29T20:08:05;96516.06;;;11.87;80.93
76478;BME280;65309;49.790;18.972;2023-04-29T20:13:08;96528.13;;;11.84;82.04
76478;BME280;65309;49.790;18.972;2023-04-29T20:18:09;96542.72;;;11.79;84.28
76478;BME280;65309;49.790;18.972;2023-04-29T20:23:13;96551.88;;;11.33;88.33
76478;BME280;65309;49.790;18.972;2023-04-29T20:28:15;96566.63;;;10.99;92.22
76478;BME280;65309;49.790;18.972;2023-04-29T20:33:17;96567.09;;;10.51;93.48
76478;BME280;65309;49.790;18.972;2023-04-29T20:38:20;96561.13;;;10.18;95.02
76478;BME280;65309;49.790;18.972;2023-04-29T20:43:25;96558.06;;;10.16;96.85
76478;BME280;65309;49.790;18.972;2023-04-29T20:48:27;96553.47;;;10.28;97.19
76478;BME280;65309;49.790;18.972;2023-04-29T20:53:30;96561.84;;;10.33;96.11
76478;BME280;65309;49.790;18.972;2023-04-29T20:58:32;96578.41;;;10.33;96.70
76478;BME280;65309;49.790;18.972;2023-04-29T21:03:34;96575.53;;;10.42;96.33
76478;BME280;65309;49.790;18.972;2023-04-29T21:08:38;96578.41;;;10.33;96.31
76478;BME280;65309;49.790;18.972;2023-04-29T21:13:40;96593.47;;;10.32;96.76
76478;BME280;65309;49.790;18.972;2023-04-29T21:18:42;96588.56;;;10.22;98.55
76478;BME280;65309;49.790;18.972;2023-04-29T21:23:45;96590.09;;;10.23;99.36
76478;BME280;65309;49.790;18.972;2023-04-29T21:28:47;96586.84;;;10.24;98.82
76478;BME280;65309;49.790;18.972;2023-04-29T21:33:49;96597.72;;;10.13;100.00
76478;BME280;65309;49.790;18.972;2023-04-29T21:38:53;96595.81;;;10.19;100.00
76478;BME280;65309;49.790;18.972;2023-04-29T21:43:56;96602.44;;;10.27;99.67
76478;BME280;65309;49.790;18.972;2023-04-29T21:48:59;96602.75;;;10.29;100.00
76478;BME280;65309;49.790;18.972;2023-04-29T21:54:03;96608.00;;;9.98;100.00
76478;BME280;65309;49.790;18.972;2023-04-29T21:59:09;96606.16;;;9.89;100.00
76478;BME280;65309;49.790;18.972;2023-04-29T22:04:11;96624.78;;;9.94;100.00
76478;BME280;65309;49.790;18.972;2023-04-29T22:09:15;96619.88;;;9.84;100.00
76478;BME280;65309;49.790;18.972;2023-04-29T22:14:17;96612.59;;;9.86;100.00
76478;BME280;65309;49.790;18.972;2023-04-29T22:19:19;96615.66;;;9.88;100.00
76478;BME280;65309;49.790;18.972;2023-04-29T22:24:22;96611.56;;;9.84;100.00
76478;BME280;65309;49.790;18.972;2023-04-29T22:29:24;96614.91;;;9.73;100.00
76478;BME280;65309;49.790;18.972;2023-04-29T22:34:26;96606.44;;;9.77;100.00
76478;BME280;65309;49.790;18.972;2023-04-29T22:39:29;96604.91;;;9.76;100.00
76478;BME280;65309;49.790;18.972;2023-04-29T22:44:31;96605.00;;;9.81;100.00
76478;BME280;65309;49.790;18.972;2023-04-29T22:49:33;96606.06;;;9.84;100.00
76478;BME280;65309;49.790;18.972;2023-04-29T22:54:37;96603.00;;;9.82;100.00
76478;BME280;65309;49.790;18.972;2023-04-29T22:59:39;96600.22;;;9.82;100.00
76478;BME280;65309;49.790;18.972;2023-04-29T23:04:42;96616.94;;;9.73;100.00
76478;BME280;65309;49.790;18.972;2023-04-29T23:09:46;96618.38;;;9.68;100.00
76478;BME280;65309;49.790;18.972;2023-04-29T23:14:47;96616.34;;;9.54;100.00
76478;BME280;65309;49.790;18.972;2023-04-29T23:19:51;96623.38;;;9.40;100.00
76478;BME280;65309;49.790;18.972;2023-04-29T23:24:55;96619.69;;;9.29;100.00
76478;BME280;65309;49.790;18.972;2023-04-29T23:29:57;96628.78;;;9.20;100.00
76478;BME280;65309;49.790;18.972;2023-04-29T23:34:59;96625.19;;;9.14;100.00
76478;BME280;65309;49.790;18.972;2023-04-29T23:40:03;96628.69;;;9.14;100.00
76478;BME280;65309;49.790;18.972;2023-04-29T23:45:07;96626.88;;;9.11;100.00
76478;BME280;65309;49.790;18.972;2023-04-29T23:50:09;96627.66;;;9.12;100.00
76478;BME280;65309;49.790;18.972;2023-04-29T23:55:13;96631.16;;;9.12;100.00
